• Join FlightAware (Why Join?)
  • Login
  • US Flag 
03:49AM EDT


 

Airport Tracker/Info


-or-


 

Live Flight TrackerFlight Track Log ✈ N700QA ✈ 11-Jul-2013 ✈ KASE - KLAX

Flight Track Log - Related Links

Times and Time Zones

All times are in EDT time to prevent confusion due to time zone crossing. See the N700QA flight status page for this flight to view local times or setup timezone preferences in your user account.

Time Position Orientation Groundspeed Altitude Reporting Facility
EDT Latitude Longitude Course Direction KTS MPH feet Rate Location/Type
11:08AM 39.3089 -106.9575 296° West 242 278 11,500  Level Denver Center
11:09AM 39.3244 -107.0475 283° West 251 289 13,600 1,680 Climbing Denver Center
11:10AM 39.3681 -107.1311 304° West 280 322 15,000 1,560 Climbing Denver Center
11:11AM 39.3581 -107.2406 263° West 293 337 16,900 1,740 Climbing Denver Center
11:12AM 39.3358 -107.3583 256° West 300 345 18,700 1,500 Climbing Denver Center
11:13AM 38.9510 -107.5726 244° Southwest  Level Estimated
11:13AM 39.3150 -107.4639 256° West 312 359 20,100  Level Denver Center
11:15AM 39.2947 -107.5719 256° West 321 369 21,500 1,380 Climbing Denver Center
11:16AM 39.2700 -107.6989 256° West 326 375 23,000 1,140 Climbing Denver Center
11:17AM 39.2494 -107.8108 257° West 333 383 23,900 960 Climbing Denver Center
11:18AM 39.2222 -107.9444 255° West 342 394 25,000 1,020 Climbing Denver Center
11:19AM 39.2011 -108.0619 257° West 351 404 26,100 960 Climbing Denver Center
11:20AM 39.1631 -108.1911 249° West 348 400 27,100 900 Climbing Denver Center
11:21AM 39.1142 -108.2936 238° Southwest 350 403 28,000 780 Climbing Denver Center
11:22AM 39.0611 -108.4200 242° Southwest 359 413 28,800 720 Climbing Denver Center
11:23AM 39.0133 -108.5294 241° Southwest 365 420 29,500 780 Climbing Denver Center
11:24AM 38.9586 -108.6553 241° Southwest 360 414 30,500 780 Climbing Denver Center
11:25AM 38.9122 -108.7622 241° Southwest 358 412 31,200 780 Climbing Denver Center
11:26AM 38.8506 -108.9044 241° Southwest 354 407 32,300 840 Climbing Denver Center
11:27AM 38.8047 -109.0106 241° Southwest 354 407 33,200 780 Climbing Denver Center
11:28AM 38.7528 -109.1314 241° Southwest 347 399 34,000 900 Climbing Denver Center
11:29AM 38.7081 -109.2342 241° Southwest 344 396 35,100 780 Climbing Denver Center
11:30AM 38.6550 -109.3514 240° Southwest 342 394 35,700 420 Climbing Denver Center
11:31AM 38.6100 -109.4519 240° Southwest 340 391 36,000 180 Climbing Denver Center
11:32AM 38.5633 -109.5586 241° Southwest 359 413 36,100  Climbing Denver Center
11:33AM 38.5053 -109.6839 239° Southwest 365 420 36,100  Level Denver Center
11:34AM 38.4550 -109.7964 240° Southwest 376 433 36,100  Level Denver Center
11:35AM 38.3961 -109.9256 240° Southwest 378 435 36,100  Level Denver Center
11:36AM 38.3453 -110.0381 240° Southwest 382 440 36,100  Level Denver Center
11:37AM 38.2858 -110.1697 240° Southwest 384 442 36,100 -60 Level Denver Center
11:39AM 38.2353 -110.2833 240° Southwest 386 444 36,000 -60 Descending Denver Center
11:40AM 38.1750 -110.4144 240° Southwest 385 443 36,000  Level Denver Center
11:41AM 38.1236 -110.5275 240° Southwest 386 444 36,000  Level Denver Center
11:42AM 38.0611 -110.6597 239° Southwest 390 449 36,100  Climbing Denver Center
11:43AM 38.0092 -110.7731 240° Southwest 390 449 36,100  Level Denver Center
11:44AM 37.9517 -110.9000 240° Southwest 389 448 36,100  Level Denver Center
11:45AM 37.8958 -111.0172 239° Southwest 389 448 36,100 -60 Level Denver Center
11:46AM 37.8414 -111.1342 240° Southwest 388 447 36,000  Descending Denver Center
11:47AM 37.7869 -111.2508 239° Southwest 386 444 36,100  Climbing Denver Center
11:48AM 37.7217 -111.3906 239° Southwest 385 443 36,100  Level Denver Center
11:49AM 37.6558 -111.5281 239° Southwest 382 440 36,100  Level Denver Center
11:50AM 37.6019 -111.6439 240° Southwest 382 440 36,100  Level Salt Lake Center
11:51AM 37.5483 -111.7586 240° Southwest 381 438 36,100 -60 Level Salt Lake Center
11:52AM 37.4811 -111.8947 238° Southwest 381 438 36,000  Descending Salt Lake Center
11:53AM 37.4264 -112.0092 239° Southwest 381 438 36,100  Climbing Salt Lake Center
11:54AM 37.3725 -112.1239 239° Southwest 380 437 36,100  Level Salt Lake Center
11:55AM 37.3164 -112.2378 238° Southwest 381 438 36,100  Level Salt Lake Center
11:56AM 37.2606 -112.3506 238° Southwest 380 437 36,100 -60 Level Salt Lake Center
11:57AM 37.2056 -112.4639 239° Southwest 379 436 36,000  Descending Salt Lake Center
11:58AM 37.1500 -112.5789 239° Southwest 381 438 36,100  Climbing Salt Lake Center
11:59AM 37.0836 -112.7144 238° Southwest 380 437 36,100 -60 Level Salt Lake Center
12:01PM 37.0275 -112.8272 238° Southwest 379 436 36,000  Descending Salt Lake Center
12:02PM 36.9719 -112.9397 238° Southwest 380 437 36,100 180 Climbing Salt Lake Center
12:03PM 36.9167 -113.0528 239° Southwest 379 436 36,400 360 Climbing Salt Lake Center
12:03PM 36.8942 -113.0978 238° Southwest 380 437 36,700 660 Climbing Los Angeles Center
12:04PM 36.8300 -113.2267 238° Southwest 367 422 37,500 600 Climbing Los Angeles Center
12:05PM 36.7764 -113.3328 238° Southwest 363 418 38,000 240 Climbing Los Angeles Center
12:06PM 36.7219 -113.4403 238° Southwest 365 420 38,000  Level Los Angeles Center
12:07PM 36.6661 -113.5522 238° Southwest 375 432 38,100  Climbing Los Angeles Center
12:08PM 36.6094 -113.6653 238° Southwest 383 441 38,100  Level Los Angeles Center
12:09PM 36.5525 -113.7764 237° Southwest 383 441 38,100  Level Los Angeles Center
12:10PM 36.4914 -113.8897 236° Southwest 377 434 38,100 -60 Level Los Angeles Center
12:12PM 36.4044 -113.9969 225° Southwest 367 422 38,000 -60 Descending Los Angeles Center
12:13PM 36.3164 -114.0981 223° Southwest 359 413 38,000  Level Los Angeles Center
12:14PM 36.2414 -114.1808 222° Southwest 360 414 38,000  Level Los Angeles Center
12:15PM 36.1650 -114.2622 221° Southwest 360 414 38,000  Level Los Angeles Center
12:16PM 36.0906 -114.3456 222° Southwest 360 414 38,000  Level Los Angeles Center
12:17PM 36.0147 -114.4292 222° Southwest 363 418 38,000  Level Los Angeles Center
12:18PM 35.9375 -114.5125 221° Southwest 365 420 38,000  Level Los Angeles Center
12:19PM 35.8469 -114.6128 222° Southwest 364 419 38,000  Level Los Angeles Center
12:20PM 35.7711 -114.6953 221° Southwest 363 418 38,000  Level Los Angeles Center
12:21PM 35.6950 -114.7794 222° Southwest 364 419 38,000  Level Los Angeles Center
12:22PM 35.6200 -114.8633 222° Southwest 364 419 38,000  Level Los Angeles Center
12:23PM 35.5458 -114.9489 223° Southwest 363 418 38,000  Level Los Angeles Center
12:24PM 35.4722 -115.0361 224° Southwest 366 421 38,000  Level Los Angeles Center
12:25PM 35.3992 -115.1222 224° Southwest 364 419 38,000  Level Los Angeles Center
12:26PM 35.3114 -115.2244 224° Southwest 362 417 38,000  Level Los Angeles Center
12:27PM 35.2389 -115.3108 224° Southwest 362 417 38,000  Level Los Angeles Center
12:28PM 35.1767 -115.3844 224° Southwest 364 419 38,000 -480 Level Los Angeles Center
12:29PM 35.1028 -115.5131 235° Southwest 384 442 37,000 -900 Descending Los Angeles Center
12:30PM 35.0375 -115.6217 234° Southwest 394 453 36,200 -840 Descending Los Angeles Center
12:31PM 34.9708 -115.7300 233° Southwest 397 457 35,300 -840 Descending Los Angeles Center
12:32PM 34.9019 -115.8403 233° Southwest 405 466 34,500 -840 Descending Los Angeles Center
12:33PM 34.8328 -115.9522 233° Southwest 411 473 33,600 -840 Descending Los Angeles Center
12:34PM 34.7639 -116.0642 233° Southwest 412 474 32,800 -960 Descending Los Angeles Center
12:35PM 34.6803 -116.1986 233° Southwest 413 475 31,700 -1,020 Descending Los Angeles Center
12:36PM 34.6097 -116.3097 232° Southwest 416 479 30,800 -840 Descending Los Angeles Center
12:37PM 34.5397 -116.4214 233° Southwest 416 479 30,000 -1,440 Descending Los Angeles Center
12:38PM 34.4681 -116.5356 233° Southwest 424 488 27,900 -1,980 Descending Los Angeles Center
12:40PM 34.3947 -116.6500 232° Southwest 429 494 25,900 -1,980 Descending Los Angeles Center
12:41PM 34.3253 -116.7614 233° Southwest 416 479 23,800 -2,280 Descending Los Angeles Center
12:42PM 34.2436 -116.8886 232° Southwest 399 459 21,300 -2,100 Descending Los Angeles Center
12:43PM 34.1789 -116.9908 233° Southwest 385 443 19,500 -1,680 Descending Los Angeles Center
12:43PM 34.1167 -117.0833 231° Southwest 386 444 18,200 -900 Descending Southern California TRACON
12:44PM 34.0667 -117.1833 239° Southwest 362 417 17,900 -900 Descending Southern California TRACON
12:45PM 34.0500 -117.2833 259° West 312 359 16,500 -1,860 Descending Southern California TRACON
12:46PM 34.0333 -117.3833 259° West 317 365 14,200 -2,100 Descending Southern California TRACON
12:47PM 34.0333 -117.5000 270° West 316 364 12,400 -1,080 Descending Southern California TRACON
12:48PM 34.0333 -117.6000 270° West 311 358 12,100 -240 Descending Southern California TRACON
12:49PM 34.0167 -117.7000 259° West 298 343 12,000 -1,020 Descending Southern California TRACON
12:50PM 34.0000 -117.8167 260° West 314 361 10,100 -1,860 Descending Southern California TRACON
12:51PM 34.0000 -117.9000 270° West 260 299 8,300 -1,680 Descending Southern California TRACON
12:52PM 34.0000 -117.9833 270° West 226 260 6,800 -1,320 Descending Southern California TRACON
12:53PM 33.9833 -118.0500 253° West 201 231 5,700 -900 Descending Southern California TRACON
12:54PM 33.9833 -118.1167 270° West 200 230 5,100 -720 Descending Southern California TRACON
12:55PM 33.9792 -118.1467 260° West 200 230 4,600 -960 Descending Los Angeles Center
12:56PM 33.9722 -118.2078 262° West 191 220 3,600 -1,140 Descending Los Angeles Center
12:57PM 33.9633 -118.2869 262° West 196 226 2,300 -1,200 Descending Los Angeles Center
12:58PM 33.9581 -118.3464 264° West 190 219 1,100 -960 Descending Los Angeles Center
12:59PM 33.9528 -118.3931 262° West 162 186 300 -780 Descending Los Angeles Center
01:01PM 33.9333 -118.4000 259° West  Level FlightAware Approximate